createdAt,value
2023-05-19T00:02:20.983Z,1.27
2023-05-19T00:04:48.374Z,1.40
2023-05-19T00:07:18.387Z,1.40
2023-05-19T00:09:45.322Z,1.30
2023-05-19T00:12:12.808Z,1.55
2023-05-19T00:14:39.594Z,1.40
2023-05-19T00:17:06.534Z,1.40
2023-05-19T00:19:33.494Z,1.38
2023-05-19T00:22:00.220Z,1.23
2023-05-19T00:24:26.766Z,1.30
2023-05-19T00:26:53.483Z,1.20
2023-05-19T00:29:20.203Z,1.17
2023-05-19T00:31:46.845Z,1.48
2023-05-19T00:34:13.549Z,1.60
2023-05-19T00:36:40.324Z,1.15
2023-05-19T00:39:07.251Z,1.27
2023-05-19T00:41:36.836Z,1.50
2023-05-19T00:44:03.540Z,1.63
2023-05-19T00:46:30.665Z,1.20
2023-05-19T00:48:57.325Z,1.30
2023-05-19T00:51:24.396Z,1.20
2023-05-19T00:53:52.166Z,1.33
2023-05-19T00:56:18.832Z,1.45
2023-05-19T00:58:45.497Z,1.40
2023-05-19T01:01:12.174Z,1.48
2023-05-19T01:03:40.241Z,1.30
2023-05-19T01:06:07.979Z,1.20
2023-05-19T01:08:37.181Z,1.33
2023-05-19T01:11:04.889Z,1.20
2023-05-19T01:13:31.478Z,1.35
2023-05-19T01:16:10.209Z,1.20
2023-05-19T01:18:42.601Z,1.52
2023-05-19T01:21:30.384Z,1.10
2023-05-19T01:24:39.203Z,1.27
2023-05-19T01:27:20.325Z,1.10
2023-05-19T01:30:08.638Z,1.40
2023-05-19T01:32:35.456Z,1.27
2023-05-19T01:35:02.370Z,1.40
2023-05-19T01:37:31.117Z,1.23
2023-05-19T01:39:57.666Z,1.10
2023-05-19T01:42:24.236Z,1.10
2023-05-19T01:44:51.253Z,1.13
2023-05-19T01:47:17.861Z,1.25
2023-05-19T01:49:44.455Z,1.20
2023-05-19T01:52:11.216Z,1.25
2023-05-19T01:54:38.555Z,1.30
2023-05-19T01:57:32.965Z,1.10
2023-05-19T02:00:06.370Z,1.25
2023-05-19T02:02:44.030Z,1.33
2023-05-19T02:05:15.700Z,1.20
2023-05-19T02:07:45.220Z,1.30
2023-05-19T02:10:22.872Z,1.30
2023-05-19T02:12:49.433Z,1.15
2023-05-19T02:15:17.106Z,1.10
2023-05-19T02:17:48.350Z,1.17
2023-05-19T02:20:15.587Z,1.20
2023-05-19T02:22:42.237Z,1.15
2023-05-19T02:25:09.287Z,1.13
2023-05-19T02:27:37.220Z,1.33
2023-05-19T02:30:04.851Z,1.30
2023-05-19T02:32:32.286Z,1.30
2023-05-19T02:34:58.935Z,1.30
2023-05-19T02:37:28.494Z,1.00
2023-05-19T02:39:58.013Z,1.20
2023-05-19T02:42:24.721Z,1.30
2023-05-19T02:44:52.346Z,1.42
2023-05-19T02:47:18.963Z,1.00
2023-05-19T02:49:45.770Z,1.40
2023-05-19T02:52:14.846Z,1.10
2023-05-19T02:54:41.611Z,1.10
2023-05-19T02:57:08.220Z,1.15
2023-05-19T02:59:34.855Z,1.30
2023-05-19T03:02:02.037Z,1.30
2023-05-19T03:04:29.542Z,1.20
2023-05-19T03:06:56.323Z,1.17
2023-05-19T03:09:22.887Z,1.10
2023-05-19T03:11:49.666Z,1.20
2023-05-19T03:14:16.271Z,1.33
2023-05-19T03:16:43.097Z,1.10
2023-05-19T03:19:09.784Z,1.20
2023-05-19T03:21:36.690Z,1.27
2023-05-19T03:24:03.542Z,1.33
2023-05-19T03:26:30.462Z,1.20
2023-05-19T03:28:57.102Z,1.27
2023-05-19T03:31:23.937Z,1.10
2023-05-19T03:33:50.687Z,1.17
2023-05-19T03:36:17.829Z,1.10
2023-05-19T03:38:44.428Z,1.30
2023-05-19T03:41:11.076Z,1.13
2023-05-19T03:43:37.871Z,1.20
2023-05-19T03:46:07.171Z,1.15
2023-05-19T03:48:42.656Z,1.25
2023-05-19T03:51:38.724Z,1.00
2023-05-19T03:54:24.002Z,1.00
2023-05-19T03:56:51.285Z,1.30
2023-05-19T03:59:17.880Z,1.20
2023-05-19T04:01:44.536Z,1.25
2023-05-19T04:04:11.238Z,1.20
2023-05-19T04:06:37.992Z,1.13
2023-05-19T04:09:13.710Z,1.30
2023-05-19T04:11:41.192Z,1.10
2023-05-19T04:14:07.965Z,1.20
2023-05-19T04:16:34.837Z,1.30
2023-05-19T04:19:02.673Z,1.20
2023-05-19T04:21:29.303Z,1.40
2023-05-19T04:23:55.997Z,1.10
2023-05-19T04:26:24.741Z,1.00
2023-05-19T04:28:52.012Z,0.98
2023-05-19T04:31:18.718Z,1.20
2023-05-19T04:33:49.684Z,1.23
2023-05-19T04:36:18.434Z,1.30
2023-05-19T04:38:46.525Z,1.27
2023-05-19T04:41:16.369Z,1.13
2023-05-19T04:43:44.512Z,1.58
2023-05-19T04:46:13.907Z,1.10
2023-05-19T04:48:43.981Z,1.00
2023-05-19T04:51:14.401Z,1.10
2023-05-19T04:53:42.760Z,1.20
2023-05-19T04:56:15.393Z,1.40
2023-05-19T04:58:44.611Z,1.20
2023-05-19T05:01:13.749Z,1.20
2023-05-19T05:03:40.448Z,1.02
2023-05-19T05:06:07.137Z,1.23
2023-05-19T05:08:36.517Z,1.20
2023-05-19T05:11:03.376Z,1.23
2023-05-19T05:13:30.388Z,1.20
2023-05-19T05:15:57.572Z,1.23
2023-05-19T05:18:24.508Z,1.15
2023-05-19T05:20:51.319Z,1.10
2023-05-19T05:23:18.258Z,1.10
2023-05-19T05:25:47.457Z,1.40
2023-05-19T05:28:15.614Z,1.20
2023-05-19T05:30:44.913Z,1.30
2023-05-19T05:33:17.261Z,1.20
2023-05-19T05:35:45.006Z,1.40
2023-05-19T05:38:13.540Z,1.38
2023-05-19T05:40:40.709Z,1.67
2023-05-19T05:43:10.498Z,1.85
2023-05-19T05:45:44.088Z,1.60
2023-05-19T05:48:11.543Z,1.77
2023-05-19T05:50:38.942Z,1.90
2023-05-19T05:53:07.216Z,2.05
2023-05-19T05:55:36.811Z,2.00
2023-05-19T05:58:04.914Z,1.80
2023-05-19T06:00:31.941Z,2.13
2023-05-19T06:02:59.490Z,1.90
2023-05-19T06:05:29.481Z,1.80
2023-05-19T06:07:57.151Z,2.35
2023-05-19T06:10:26.504Z,1.83
2023-05-19T06:12:54.768Z,1.75
2023-05-19T06:15:22.353Z,1.77
2023-05-19T06:18:19.118Z,1.90
2023-05-19T06:20:48.073Z,2.10
2023-05-19T06:23:14.888Z,2.03
2023-05-19T06:25:43.982Z,1.77
2023-05-19T06:28:10.917Z,1.58
2023-05-19T06:30:38.014Z,1.80
2023-05-19T06:33:16.656Z,2.13
2023-05-19T06:35:43.328Z,1.60
2023-05-19T06:38:10.123Z,2.10
2023-05-19T06:40:37.107Z,2.03
2023-05-19T06:43:04.805Z,2.00
2023-05-19T06:45:51.131Z,2.08
2023-05-19T06:48:18.170Z,1.98
2023-05-19T06:50:44.821Z,1.92
2023-05-19T06:53:12.565Z,1.60
2023-05-19T06:55:47.208Z,1.88
2023-05-19T06:58:26.786Z,1.80
2023-05-19T07:00:53.723Z,1.85
2023-05-19T07:03:21.301Z,1.70
2023-05-19T07:05:48.592Z,1.70
2023-05-19T07:08:15.260Z,1.80
2023-05-19T07:10:42.644Z,1.80
2023-05-19T07:13:12.648Z,1.88
2023-05-19T07:15:39.375Z,1.70
2023-05-19T07:18:06.244Z,1.70
2023-05-19T07:20:33.244Z,1.67
2023-05-19T07:23:00.070Z,1.70
2023-05-19T07:25:30.879Z,2.28
2023-05-19T07:27:57.903Z,1.60
2023-05-19T07:30:27.947Z,1.80
2023-05-19T07:32:54.683Z,1.70
2023-05-19T07:35:24.781Z,1.73
2023-05-19T07:37:53.140Z,1.77
2023-05-19T07:40:21.262Z,1.60
2023-05-19T07:42:50.821Z,1.70
2023-05-19T07:45:17.766Z,1.70
2023-05-19T07:47:44.475Z,1.80
2023-05-19T07:50:11.262Z,1.65
2023-05-19T07:52:37.949Z,1.80
2023-05-19T07:55:04.802Z,1.85
2023-05-19T07:57:32.556Z,1.83
2023-05-19T07:59:59.164Z,1.73
2023-05-19T08:02:26.167Z,1.73
2023-05-19T08:04:53.166Z,1.48
2023-05-19T08:07:19.963Z,1.77
2023-05-19T08:09:46.673Z,1.90
2023-05-19T08:12:13.381Z,1.90
2023-05-19T08:14:40.085Z,1.80
2023-05-19T08:17:06.769Z,1.75
2023-05-19T08:19:33.475Z,1.73
2023-05-19T08:22:01.298Z,1.90
2023-05-19T08:24:32.698Z,2.05
2023-05-19T08:27:02.630Z,1.73
2023-05-19T08:29:29.357Z,1.70
2023-05-19T08:31:58.860Z,1.80
2023-05-19T08:34:25.690Z,1.70
2023-05-19T08:36:53.419Z,1.73
2023-05-19T08:39:26.767Z,1.73
2023-05-19T08:41:54.535Z,2.00
2023-05-19T08:44:21.389Z,1.70
2023-05-19T08:46:48.138Z,1.75
2023-05-19T08:49:16.893Z,1.80
2023-05-19T08:51:56.010Z,1.70
2023-05-19T08:54:25.586Z,1.60
2023-05-19T08:56:52.291Z,2.40
2023-05-19T08:59:18.969Z,1.60
2023-05-19T09:01:48.526Z,1.60
2023-05-19T09:04:15.951Z,1.80
2023-05-19T09:06:45.109Z,1.65
2023-05-19T09:09:11.897Z,1.55
2023-05-19T09:11:38.473Z,1.48
2023-05-19T09:14:05.698Z,1.70
2023-05-19T09:16:33.901Z,1.58
2023-05-19T09:19:04.448Z,1.83
2023-05-19T09:21:31.413Z,1.70
2023-05-19T09:23:59.331Z,1.70
2023-05-19T09:26:27.369Z,1.80
2023-05-19T09:28:54.898Z,1.60
2023-05-19T09:31:22.563Z,1.50
2023-05-19T09:33:52.989Z,1.90
2023-05-19T09:36:19.648Z,1.60
2023-05-19T09:38:46.522Z,1.48
2023-05-19T09:41:14.416Z,2.03
2023-05-19T09:43:41.759Z,1.45
2023-05-19T09:46:11.820Z,1.50
2023-05-19T09:48:39.548Z,1.42
2023-05-19T09:51:08.074Z,1.60
2023-05-19T09:53:35.209Z,1.73
2023-05-19T09:56:02.332Z,1.67
2023-05-19T09:58:35.427Z,1.50
2023-05-19T10:01:02.381Z,1.55
2023-05-19T10:03:29.371Z,1.60
2023-05-19T10:05:56.303Z,1.50
2023-05-19T10:08:26.410Z,1.83
2023-05-19T10:10:53.167Z,1.60
2023-05-19T10:13:19.850Z,1.55
2023-05-19T10:15:57.381Z,1.63
2023-05-19T10:18:25.835Z,1.50
2023-05-19T10:20:52.706Z,1.40
2023-05-19T10:23:20.072Z,1.50
2023-05-19T10:25:46.743Z,1.50
2023-05-19T10:28:14.866Z,1.50
2023-05-19T10:30:43.313Z,1.58
2023-05-19T10:33:12.219Z,1.60
2023-05-19T10:36:11.058Z,1.70
2023-05-19T10:38:50.131Z,1.35
2023-05-19T10:41:36.249Z,1.55
2023-05-19T10:44:14.095Z,1.40
2023-05-19T10:46:41.366Z,1.75
2023-05-19T10:49:08.374Z,1.30
2023-05-19T10:51:36.222Z,1.30
2023-05-19T10:54:03.526Z,1.30
2023-05-19T10:56:32.976Z,1.40
2023-05-19T10:58:59.870Z,1.38
2023-05-19T11:01:31.540Z,1.38
2023-05-19T11:04:04.826Z,1.40
2023-05-19T11:06:32.656Z,1.63
2023-05-19T11:09:09.105Z,1.35
2023-05-19T11:11:52.320Z,1.50
2023-05-19T11:14:20.940Z,1.60
2023-05-19T11:16:48.330Z,1.45
2023-05-19T11:19:35.351Z,1.42
2023-05-19T11:22:12.558Z,1.33
2023-05-19T11:24:50.536Z,1.40
2023-05-19T11:27:31.405Z,1.30
2023-05-19T11:30:06.604Z,1.30
2023-05-19T11:32:35.205Z,1.40
2023-05-19T11:35:02.094Z,1.52
2023-05-19T11:37:34.684Z,1.60
2023-05-19T11:40:05.807Z,1.55
2023-05-19T11:42:32.478Z,1.20
2023-05-19T11:44:59.144Z,1.23
2023-05-19T11:47:25.897Z,1.48
2023-05-19T11:49:52.583Z,1.52
2023-05-19T11:52:23.240Z,1.70
2023-05-19T11:54:50.230Z,1.50
2023-05-19T11:57:16.975Z,1.38
2023-05-19T11:59:48.200Z,1.52
2023-05-19T12:02:19.353Z,1.50
2023-05-19T12:04:46.969Z,1.33
2023-05-19T12:07:15.248Z,1.42
2023-05-19T12:09:42.588Z,1.40
2023-05-19T12:12:09.344Z,1.45
2023-05-19T12:14:36.153Z,1.40
2023-05-19T12:17:16.619Z,1.40
2023-05-19T12:19:43.838Z,1.30
2023-05-19T12:22:10.785Z,1.40
2023-05-19T12:24:37.759Z,1.60
2023-05-19T12:27:20.647Z,1.45
2023-05-19T12:29:53.708Z,1.50
2023-05-19T12:32:27.790Z,1.70
2023-05-19T12:34:57.485Z,1.60
2023-05-19T12:37:27.796Z,1.70
2023-05-19T12:39:55.224Z,1.58
2023-05-19T12:42:22.553Z,1.85
2023-05-19T12:44:51.643Z,1.90
2023-05-19T12:47:19.924Z,1.90
2023-05-19T12:50:03.584Z,1.90
2023-05-19T12:52:32.563Z,1.92
2023-05-19T12:54:59.896Z,1.70
2023-05-19T12:57:27.361Z,1.50
2023-05-19T12:59:59.897Z,1.60
2023-05-19T13:02:26.625Z,1.80
2023-05-19T13:04:54.303Z,1.90
2023-05-19T13:07:20.962Z,1.63
2023-05-19T13:09:48.223Z,1.75
2023-05-19T13:12:14.841Z,2.15
2023-05-19T13:14:42.438Z,1.70
2023-05-19T13:17:09.460Z,1.58
2023-05-19T13:19:37.075Z,1.73
2023-05-19T13:22:04.306Z,1.60
2023-05-19T13:24:30.953Z,1.40
2023-05-19T13:27:00.796Z,1.83
2023-05-19T13:29:31.442Z,1.70
2023-05-19T13:32:01.127Z,1.80
2023-05-19T13:34:28.183Z,2.00
2023-05-19T13:36:54.965Z,1.80
2023-05-19T13:39:21.728Z,1.80
2023-05-19T13:41:48.368Z,1.75
2023-05-19T13:44:15.093Z,1.65
2023-05-19T13:46:45.356Z,1.88
2023-05-19T13:49:13.592Z,1.80
2023-05-19T13:51:42.710Z,1.60
2023-05-19T13:54:12.400Z,1.50
2023-05-19T13:56:39.396Z,1.80
2023-05-19T13:59:06.053Z,1.73
2023-05-19T14:01:32.957Z,1.75
2023-05-19T14:04:00.769Z,2.17
2023-05-19T14:06:27.990Z,1.50
2023-05-19T14:08:54.664Z,1.83
2023-05-19T14:11:24.144Z,1.55
2023-05-19T14:13:52.742Z,1.77
2023-05-19T14:16:21.914Z,1.77
2023-05-19T14:18:49.127Z,1.70
2023-05-19T14:21:15.898Z,1.55
2023-05-19T14:23:42.584Z,1.80
2023-05-19T14:26:11.985Z,1.55
2023-05-19T14:28:38.930Z,1.60
2023-05-19T14:31:06.111Z,1.63
2023-05-19T14:33:35.255Z,1.55
2023-05-19T14:36:03.561Z,1.70
2023-05-19T14:38:30.554Z,1.70
2023-05-19T14:41:00.136Z,1.70
2023-05-19T14:43:26.888Z,1.80
2023-05-19T14:45:53.482Z,1.70
2023-05-19T14:48:20.194Z,1.70
2023-05-19T14:50:48.411Z,1.80
2023-05-19T14:53:15.404Z,1.73
2023-05-19T14:55:42.761Z,1.60
2023-05-19T14:58:26.899Z,1.95
2023-05-19T15:00:57.375Z,1.45
2023-05-19T15:03:24.361Z,1.60
2023-05-19T15:05:51.191Z,1.70
2023-05-19T15:08:17.821Z,1.67
2023-05-19T15:10:48.608Z,1.80
2023-05-19T15:13:15.399Z,1.92
2023-05-19T15:15:42.126Z,1.52
2023-05-19T15:18:08.904Z,1.77
2023-05-19T15:20:35.792Z,1.60
2023-05-19T15:23:02.599Z,1.58
2023-05-19T15:25:29.747Z,1.60
2023-05-19T15:27:59.383Z,1.60
2023-05-19T15:30:26.085Z,1.52
2023-05-19T15:32:52.786Z,1.70
2023-05-19T15:35:19.474Z,1.52
2023-05-19T15:37:46.263Z,1.73
2023-05-19T15:40:13.092Z,1.85
2023-05-19T15:42:39.773Z,1.60
2023-05-19T15:45:08.119Z,1.73
2023-05-19T15:47:34.870Z,1.80
2023-05-19T15:50:01.706Z,1.70
2023-05-19T15:52:29.214Z,1.98
2023-05-19T15:54:58.946Z,1.60
2023-05-19T15:57:25.894Z,1.67
2023-05-19T15:59:52.646Z,1.60
2023-05-19T16:02:19.583Z,1.85
2023-05-19T16:04:46.440Z,1.60
2023-05-19T16:07:13.203Z,1.75
2023-05-19T16:09:39.923Z,1.90
2023-05-19T16:12:09.928Z,1.60
2023-05-19T16:14:37.768Z,1.90
2023-05-19T16:17:05.024Z,1.50
2023-05-19T16:19:32.353Z,1.90
2023-05-19T16:21:59.072Z,1.70
2023-05-19T16:24:25.882Z,1.60
2023-05-19T16:26:53.788Z,1.60
2023-05-19T16:29:20.809Z,1.88
2023-05-19T16:31:47.646Z,1.90
2023-05-19T16:34:14.448Z,1.60
2023-05-19T16:36:41.176Z,1.75
2023-05-19T16:39:07.878Z,1.70
2023-05-19T16:41:34.577Z,1.50
2023-05-19T16:44:02.301Z,1.85
2023-05-19T16:46:30.611Z,1.80
2023-05-19T16:48:58.108Z,1.95
2023-05-19T16:51:24.834Z,1.40
2023-05-19T16:53:51.529Z,1.77
2023-05-19T16:56:18.141Z,1.55
2023-05-19T16:58:44.843Z,1.80
2023-05-19T17:01:12.162Z,1.75
2023-05-19T17:03:39.077Z,1.60
2023-05-19T17:06:06.002Z,1.70
2023-05-19T17:08:32.711Z,1.67
2023-05-19T17:10:59.358Z,1.80
2023-05-19T17:13:28.229Z,1.90
2023-05-19T17:15:54.905Z,1.67
2023-05-19T17:18:21.698Z,1.65
2023-05-19T17:20:48.391Z,1.40
2023-05-19T17:23:15.104Z,1.50
2023-05-19T17:25:41.878Z,1.60
2023-05-19T17:28:08.711Z,1.60
2023-05-19T17:30:35.713Z,1.85
2023-05-19T17:33:02.649Z,1.60
2023-05-19T17:35:29.339Z,1.42
2023-05-19T17:37:58.548Z,1.50
2023-05-19T17:40:25.571Z,1.40
2023-05-19T17:42:52.353Z,1.70
2023-05-19T17:45:19.138Z,1.60
2023-05-19T17:47:46.111Z,1.65
2023-05-19T17:50:12.926Z,1.80
2023-05-19T17:52:40.499Z,1.58
2023-05-19T17:55:08.112Z,1.50
2023-05-19T17:57:34.801Z,1.60
2023-05-19T18:00:02.938Z,1.60
2023-05-19T18:02:31.784Z,1.55
2023-05-19T18:04:58.726Z,1.63
2023-05-19T18:07:26.221Z,1.45
2023-05-19T18:09:52.940Z,1.60
2023-05-19T18:12:19.610Z,1.50
2023-05-19T18:14:46.244Z,1.55
2023-05-19T18:17:12.941Z,1.30
2023-05-19T18:19:39.731Z,1.40
2023-05-19T18:22:06.760Z,1.40
2023-05-19T18:24:33.460Z,1.55
2023-05-19T18:27:00.129Z,1.60
2023-05-19T18:29:26.781Z,1.60
2023-05-19T18:31:53.524Z,1.58
2023-05-19T18:34:20.235Z,1.85
2023-05-19T18:36:46.926Z,1.50
2023-05-19T18:39:13.944Z,1.30
2023-05-19T18:41:42.721Z,1.50
2023-05-19T18:44:09.450Z,1.65
2023-05-19T18:46:36.276Z,1.67
2023-05-19T18:49:03.767Z,1.60
2023-05-19T18:51:31.461Z,1.80
2023-05-19T18:53:58.169Z,1.90
2023-05-19T18:56:26.132Z,1.63
2023-05-19T18:58:53.715Z,1.45
2023-05-19T19:01:20.480Z,1.70
2023-05-19T19:03:49.242Z,1.60
2023-05-19T19:06:17.347Z,1.50
2023-05-19T19:08:44.474Z,1.90
2023-05-19T19:11:11.353Z,2.38
2023-05-19T19:13:38.335Z,2.42
2023-05-19T19:16:05.505Z,4.32
2023-05-19T19:18:32.264Z,4.75
2023-05-19T19:21:01.350Z,3.80
2023-05-19T19:23:28.158Z,5.32
2023-05-19T19:25:56.496Z,4.53
2023-05-19T19:28:23.469Z,4.15
2023-05-19T19:30:50.091Z,4.13
2023-05-19T19:33:16.861Z,4.20
2023-05-19T19:35:49.432Z,4.38
2023-05-19T19:38:16.211Z,5.28
2023-05-19T19:40:42.953Z,5.55
2023-05-19T19:43:09.686Z,5.25
2023-05-19T19:45:39.129Z,5.40
2023-05-19T19:48:07.156Z,6.28
2023-05-19T19:50:34.425Z,5.45
2023-05-19T19:53:01.536Z,4.75
2023-05-19T19:55:29.923Z,5.07
2023-05-19T19:57:57.014Z,4.57
2023-05-19T20:00:23.846Z,4.75
2023-05-19T20:03:02.942Z,5.03
2023-05-19T20:05:31.167Z,4.35
2023-05-19T20:07:57.889Z,4.25
2023-05-19T20:10:24.626Z,3.90
2023-05-19T20:12:51.776Z,3.90
2023-05-19T20:15:19.038Z,4.07
2023-05-19T20:17:45.987Z,4.22
2023-05-19T20:20:13.077Z,3.97
2023-05-19T20:22:40.032Z,4.10
2023-05-19T20:25:07.217Z,3.70
2023-05-19T20:27:33.943Z,3.90
2023-05-19T20:30:00.749Z,3.72
2023-05-19T20:32:27.495Z,3.88
2023-05-19T20:34:54.185Z,3.97
2023-05-19T20:37:22.201Z,3.55
2023-05-19T20:39:49.039Z,3.95
2023-05-19T20:42:15.761Z,3.63
2023-05-19T20:44:42.643Z,3.60
2023-05-19T20:47:09.606Z,3.47
2023-05-19T20:49:36.485Z,3.30
2023-05-19T20:52:03.403Z,4.00
2023-05-19T20:54:30.116Z,3.00
2023-05-19T20:56:56.815Z,3.30
2023-05-19T20:59:23.460Z,3.45
2023-05-19T21:01:50.092Z,3.00
2023-05-19T21:04:16.826Z,2.78
2023-05-19T21:06:43.657Z,2.55
2023-05-19T21:09:10.759Z,2.53
2023-05-19T21:11:37.524Z,2.72
2023-05-19T21:14:04.516Z,2.55
2023-05-19T21:16:31.561Z,2.70
2023-05-19T21:18:58.420Z,2.67
2023-05-19T21:21:25.367Z,2.60
2023-05-19T21:23:52.044Z,2.80
2023-05-19T21:26:18.656Z,2.72
2023-05-19T21:28:45.516Z,2.75
2023-05-19T21:31:12.459Z,2.67
2023-05-19T21:33:39.148Z,2.80
2023-05-19T21:36:06.008Z,2.40
2023-05-19T21:38:32.697Z,2.45
2023-05-19T21:40:59.337Z,2.40
2023-05-19T21:43:26.183Z,2.60
2023-05-19T21:45:52.928Z,2.45
2023-05-19T21:48:19.785Z,2.30
2023-05-19T21:50:46.436Z,2.45
2023-05-19T21:53:13.160Z,2.28
2023-05-19T21:55:40.126Z,2.50
2023-05-19T21:58:06.837Z,2.30
2023-05-19T22:00:34.310Z,2.60
2023-05-19T22:03:01.433Z,2.53
2023-05-19T22:05:32.300Z,2.30
2023-05-19T22:07:58.994Z,2.42
2023-05-19T22:10:25.826Z,2.20
2023-05-19T22:12:52.786Z,2.20
2023-05-19T22:15:19.930Z,2.60
2023-05-19T22:17:47.268Z,2.30
2023-05-19T22:20:14.187Z,2.40
2023-05-19T22:22:40.823Z,2.25
2023-05-19T22:25:07.848Z,2.67
2023-05-19T22:27:34.468Z,2.10
2023-05-19T22:30:01.206Z,2.38
2023-05-19T22:32:27.987Z,2.10
2023-05-19T22:34:54.822Z,2.60
2023-05-19T22:37:22.718Z,2.30
2023-05-19T22:39:49.357Z,2.05
2023-05-19T22:42:15.974Z,2.58
2023-05-19T22:44:43.303Z,2.47
2023-05-19T22:47:13.904Z,2.85
2023-05-19T22:49:41.477Z,2.20
2023-05-19T22:52:09.155Z,2.10
2023-05-19T22:54:35.808Z,2.40
2023-05-19T22:57:03.335Z,2.35
2023-05-19T22:59:29.996Z,2.28
2023-05-19T23:01:56.721Z,2.30
2023-05-19T23:04:23.483Z,2.20
2023-05-19T23:06:50.120Z,2.08
2023-05-19T23:09:17.942Z,2.47
2023-05-19T23:11:45.091Z,2.50
2023-05-19T23:14:11.703Z,2.50
2023-05-19T23:16:38.398Z,2.03
2023-05-19T23:19:05.185Z,2.33
2023-05-19T23:21:32.503Z,2.05
2023-05-19T23:23:59.592Z,1.90
2023-05-19T23:26:29.970Z,2.30
2023-05-19T23:28:56.603Z,2.10
2023-05-19T23:31:23.312Z,2.67
2023-05-19T23:33:49.961Z,2.17
2023-05-19T23:36:17.649Z,1.85
2023-05-19T23:38:44.271Z,2.30
2023-05-19T23:41:10.970Z,2.20
2023-05-19T23:43:37.865Z,2.50
2023-05-19T23:46:04.569Z,1.92
2023-05-19T23:48:31.497Z,2.30
2023-05-19T23:50:58.239Z,2.80
2023-05-19T23:53:25.017Z,2.15
2023-05-19T23:55:51.744Z,2.25
2023-05-19T23:58:18.432Z,2.20
